Date,TemperatureHighF,TemperatureAvgF,TemperatureLowF,DewpointHighF,DewpointAvgF,DewpointLowF,HumidityHigh,HumidityAvg,HumidityLow,PressureMaxIn,PressureMinIn,WindSpeedMaxMPH,WindSpeedAvgMPH,GustSpeedMaxMPH,PrecipitationSumIn
2013-1-10,59.7,50.8,43.5,31.7,28.1,23.5,57,43,27,30.85,30.80,4,1,8,0.39
2013-1-11,46.8,42.8,38.8,42.6,36.4,28.6,99,79,57,30.82,30.41,4,0,9,0.04
2013-1-12,61.7,46.9,41.4,48.7,44.0,32.9,99,91,60,30.49,30.41,5,1,8,0.00
2013-1-13,57.0,49.7,42.4,56.8,49.1,42.2,99,98,97,30.46,30.29,6,1,9,0.01
2013-1-14,60.6,53.8,39.7,59.8,47.7,37.3,99,81,62,30.62,30.26,8,2,13,0.11
2013-1-15,40.3,38.7,35.4,39.7,37.8,34.1,99,97,91,30.66,30.47,4,1,8,0.69
2013-1-16,41.4,37.5,34.3,40.6,36.7,33.3,99,97,94,30.48,30.16,10,2,20,0.90
2013-1-17,43.9,41.0,37.6,41.6,31.8,27.3,99,70,54,30.44,30.29,6,2,10,0.02
2013-1-18,42.6,35.3,31.3,29.7,15.1,-0.3,73,45,20,30.80,30.35,9,4,17,0.00
2013-1-19,57.2,42.7,31.3,29.7,24.4,19.2,68,50,31,30.73,29.61,13,9,20,0.00
2013-1-20,61.5,46.8,36.1,30.8,19.5,3.4,59,37,16,30.40,30.14,14,7,20,0.00
2013-1-21,36.0,33.5,31.8,15.7,12.8,8.8,50,42,32,30.41,30.38,7,3,12,0.00
2013-1-22,29.3,19.3,16.5,9.5,-11.7,-15.6,43,24,19,30.60,30.25,14,6,14,0.00
2013-1-23,29.3,19.2,13.1,-2.1,-6.9,-11.5,49,32,18,30.65,30.49,11,4,16,0.00
2013-1-24,27.7,21.8,16.5,14.5,8.7,1.1,79,59,36,30.66,30.39,10,4,17,0.00
2013-1-25,24.1,20.7,17.2,15.1,2.5,-10.5,78,49,24,30.81,30.38,5,1,8,0.00
2013-1-26,32.0,26.1,22.3,18.2,16.6,15.2,75,68,58,30.55,30.39,3,1,6,0.00
2013-1-27,43.3,33.0,25.3,20.1,17.1,12.9,75,53,31,30.89,30.74,6,1,8,0.01
2013-1-28,32.9,32.3,31.8,31.0,24.6,19.7,94,74,60,30.81,30.65,9,2,15,0.02
2013-2-2,30.6,23.9,16.5,15.1,5.0,-1.7,57,45,29,30.66,30.44,8,2,12,0.00
2013-2-3,34.5,30.5,25.9,27.4,24.1,15.2,90,78,52,30.31,30.14,8,2,15,0.01
2013-2-4,38.1,31.9,24.4,18.4,13.3,6.4,54,46,35,30.41,30.26,7,2,11,0.00
2013-2-5,42.3,38.1,33.3,27.5,24.8,18.7,65,59,50,30.24,30.16,3,1,6,0.00
2013-2-6,49.5,42.2,33.3,29.4,25.7,21.8,78,53,39,30.60,30.25,9,3,17,0.00
2013-2-7,41.4,36.5,29.5,27.7,24.7,17.7,70,62,53,30.75,30.50,4,1,8,0.00
2013-2-8,41.5,36.9,32.7,39.1,32.6,19.2,99,85,52,30.50,30.05,14,2,24,0.17
2013-2-9,44.8,36.1,28.8,19.7,12.7,7.8,59,39,25,30.71,30.23,11,3,22,0.02
2013-2-10,50.0,36.1,25.0,26.2,14.5,6.6,61,42,21,30.78,30.55,8,1,14,0.00
2013-2-11,52.7,44.0,37.0,50.4,42.1,26.2,99,93,47,30.55,30.02,10,4,15,0.14
2013-2-12,62.1,49.2,40.6,30.7,25.6,21.1,64,41,22,30.31,30.13,8,2,13,0.01
2013-2-13,50.4,38.9,33.4,37.3,28.5,23.6,97,67,44,30.27,29.97,4,1,9,0.15
2013-2-14,57.0,43.6,33.3,33.2,27.0,20.3,97,55,26,30.33,30.09,6,1,10,0.04
2013-2-15,66.0,49.1,35.1,38.2,31.5,23.2,94,58,23,30.34,30.19,8,3,15,0.08
2013-2-16,40.1,35.3,30.2,35.0,28.1,13.3,96,77,45,30.33,30.14,8,2,14,0.02
2013-2-17,34.2,27.7,23.9,14.8,4.9,-8.0,55,39,21,30.51,30.14,15,5,34,0.00
2013-2-18,47.5,31.8,20.3,13.8,3.8,-2.8,47,31,18,30.68,30.46,8,3,14,0.00
2013-2-19,44.4,39.6,35.8,41.2,29.1,13.4,92,68,37,30.47,30.03,12,5,21,0.07
2013-2-20,42.3,33.1,24.4,21.7,10.0,2.0,52,38,25,30.48,30.16,12,4,22,0.00
2013-2-21,42.6,30.4,23.4,14.8,9.3,2.8,54,41,26,30.64,30.44,11,3,18,0.00
2013-2-22,35.1,32.5,29.1,29.6,23.1,13.2,87,69,48,30.68,30.52,6,1,10,0.05
2013-2-23,45.0,38.3,32.9,43.3,37.1,29.5,99,95,87,30.52,30.12,4,1,8,0.02
2013-2-24,55.4,42.6,0.0,41.6,30.0,16.0,99,65,26,30.43,30.11,11,3,19,0.15
2013-2-25,54.0,38.7,29.1,25.5,20.2,16.1,63,49,26,30.53,30.42,4,1,9,0.00
2013-2-26,44.1,38.7,33.4,43.5,32.7,20.6,99,80,54,30.53,29.91,10,2,21,0.66
2013-2-27,58.5,47.2,38.8,43.5,38.5,31.7,99,76,42,30.01,29.83,8,2,14,0.04
2013-2-28,49.5,42.5,39.7,37.1,28.0,22.1,84,57,34,30.05,29.95,7,3,11,0.01
2013-3-1,44.4,40.5,35.8,29.6,26.3,20.8,65,57,45,30.19,30.04,9,3,16,0.00
2013-3-2,39.2,33.3,29.7,20.9,18.7,-16.1,64,55,42,30.20,30.12,9,3,17,0.00
2013-3-3,44.1,33.7,28.4,19.8,15.9,12.0,65,49,28,30.92,30.09,10,4,21,0.00
2013-3-4,47.5,35.1,27.9,15.5,11.9,7.1,55,39,21,30.34,30.22,12,4,22,0.00
2013-3-5,58.1,41.4,32.0,29.6,16.5,8.7,73,39,17,30.38,30.11,7,2,11,0.00
2013-3-6,38.3,35.1,32.7,35.4,32.6,27.8,97,91,71,30.30,29.90,14,4,24,0.52
2013-3-7,51.8,41.7,34.3,31.2,26.5,22.0,77,56,34,30.46,30.30,11,3,20,0.00
2013-3-8,52.2,42.2,35.6,27.6,25.0,22.4,67,51,34,30.58,30.43,13,4,23,0.00
2013-3-9,66.6,48.3,33.8,26.7,20.9,15.6,62,38,14,30.66,30.55,8,2,12,0.00
2013-3-10,68.7,52.1,38.5,35.2,22.6,14.2,68,36,13,30.64,30.52,10,2,17,0.00
2013-3-11,61.3,51.7,43.2,50.0,45.0,35.2,98,79,62,30.57,30.24,11,2,14,0.00
2013-3-12,61.5,53.5,41.5,56.6,45.9,30.7,99,77,48,30.28,30.00,11,4,21,0.52
2013-3-13,53.2,41.9,34.2,31.0,24.2,13.4,69,51,21,30.38,30.20,11,3,21,0.00
2013-3-14,48.4,38.2,31.6,18.6,13.3,6.1,54,37,19,30.44,30.33,14,5,98,0.00
2013-3-15,59.4,45.4,32.0,33.1,20.6,8.6,56,39,21,30.40,30.09,11,3,17,0.00
2013-3-16,64.6,50.2,38.8,49.8,37.0,32.2,86,61,39,30.22,29.94,9,1,14,0.01
2013-3-17,41.9,38.3,34.0,35.1,30.0,25.3,88,72,57,30.58,30.21,6,1,10,0.00
2013-3-18,38.1,36.1,32.2,36.5,29.6,18.5,97,79,47,30.63,30.19,6,1,12,0.26
2013-3-19,61.0,46.2,35.4,41.4,29.1,4.1,99,62,16,30.23,30.02,19,3,29,0.01
2013-3-20,48.2,40.0,36.0,11.7,6.0,2.7,30,24,18,30.30,30.22,13,4,21,0.00
2013-3-21,39.9,33.4,28.6,28.0,5.8,-1.5,85,32,21,30.22,30.07,10,4,19,0.00
2013-3-22,50.7,37.5,27.7,19.7,12.7,5.3,48,37,23,30.32,30.19,12,4,21,0.00
2013-3-23,57.4,42.9,30.9,23.2,19.8,15.7,60,41,22,30.34,30.21,10,2,17,0.00
2013-3-24,45.9,37.9,32.5,33.8,23.6,19.0,98,58,36,30.31,29.96,6,1,8,0.00
2013-3-25,38.8,34.7,32.4,37.1,33.7,32.0,99,96,90,30.01,29.82,4,1,10,0.38
2013-3-26,53.8,41.4,32.9,36.9,30.4,22.0,99,69,31,30.30,30.01,9,3,17,0.01
2013-3-27,50.4,40.9,36.9,29.8,27.7,22.0,69,60,35,30.43,30.29,10,4,22,0.00
2013-3-28,48.0,42.1,36.3,30.5,28.6,24.5,66,59,46,30.54,30.39,8,3,14,0.00
2013-3-29,58.8,45.2,39.7,32.4,30.3,22.5,68,57,26,30.56,30.48,8,2,13,0.00
2013-3-30,60.1,54.0,43.9,30.6,27.6,23.0,53,37,25,30.53,30.50,4,2,6,0.00
2013-3-31,51.8,50.2,47.8,51.4,49.5,47.6,99,97,94,30.11,30.05,8,2,14,0.02
2013-4-1,59.5,49.7,46.2,47.6,42.2,27.8,99,80,36,30.14,30.07,11,2,22,0.01
2013-4-2,52.3,43.5,36.9,20.7,10.7,5.6,44,27,17,30.49,30.31,11,4,14,0.00
2013-4-3,54.5,41.7,33.4,18.5,11.3,5.2,49,30,17,30.69,30.49,9,3,16,0.00
2013-4-4,52.5,40.1,28.9,37.2,15.2,7.2,97,40,18,30.71,30.42,6,1,10,0.04
2013-4-5,70.5,51.4,37.6,41.1,29.2,16.9,99,55,14,30.38,30.13,7,2,12,0.15
2013-4-6,62.8,53.0,37.6,32.2,18.4,11.5,61,27,16,30.63,30.37,7,2,11,0.00
2013-4-7,72.7,54.4,39.7,42.5,35.0,27.8,81,51,26,30.60,30.29,12,4,22,0.00
2013-4-8,80.1,65.5,54.5,47.6,45.0,42.3,65,49,31,30.39,30.33,5,1,8,0.00
2013-4-9,89.6,77.2,64.4,55.4,52.9,50.6,65,45,27,30.39,30.24,7,3,10,0.00
2013-4-10,93.7,77.6,68.2,60.2,54.5,52.6,61,46,28,30.30,30.09,11,3,14,0.00
2013-4-11,94.1,76.2,56.1,62.2,58.1,51.8,94,57,30,30.20,30.03,7,2,11,0.00
2013-4-12,75.4,57.8,52.0,67.8,56.5,51.4,99,96,77,30.13,29.91,11,2,17,0.59
2013-4-13,74.1,59.3,47.3,52.1,40.2,31.5,94,53,22,30.26,30.07,8,2,12,0.00
2013-4-14,72.1,61.8,45.7,45.7,38.4,32.6,77,44,26,30.45,30.08,9,2,12,2.36
2013-4-15,66.7,58.6,55.0,53.2,46.5,43.5,81,64,56,30.60,30.44,5,1,7,0.00
2013-4-16,57.4,56.2,55.6,53.1,51.6,49.5,89,85,75,30.60,30.57,2,0,4,0.00
2013-4-17,80.8,70.4,60.4,63.8,59.9,57.3,99,71,51,30.52,30.43,4,2,8,0.01
2013-4-18,82.2,67.2,58.6,65.6,60.0,56.3,99,80,47,30.54,30.32,4,1,9,0.07
2013-4-19,78.1,67.3,50.4,67.9,62.2,50.1,99,85,64,30.32,29.91,13,4,21,0.72
2013-4-20,62.6,53.5,45.9,49.6,29.2,20.9,99,43,20,30.64,30.10,11,5,17,0.04
2013-4-21,60.6,51.4,39.0,27.3,20.3,15.2,56,31,20,30.90,30.66,5,3,11,0.00
2013-4-22,63.3,52.1,37.2,38.3,36.3,32.2,87,56,35,30.88,30.70,4,2,11,0.00
2013-4-23,48.0,46.6,45.9,41.8,40.1,37.2,85,78,66,30.71,30.61,2,1,8,0.00
2013-4-24,80.1,69.6,46.4,56.1,52.6,43.9,99,57,37,30.43,30.10,10,5,26,0.21
2013-4-25,62.4,50.8,44.8,50.5,36.5,29.6,76,58,42,30.59,30.28,9,5,21,0.08
2013-4-26,70.2,58.1,46.0,40.9,34.2,28.3,71,44,23,30.76,30.62,5,2,8,0.00
2013-4-27,78.3,66.6,48.0,45.6,38.1,32.0,73,37,23,30.73,30.58,3,1,11,0.00
2013-4-28,69.8,58.8,50.5,52.0,43.6,32.5,81,60,28,30.61,30.45,6,2,15,0.01
2013-4-29,61.5,56.6,53.1,60.2,56.1,52.5,99,98,95,30.42,30.34,3,1,11,0.28
2013-4-30,59.0,55.4,54.1,58.4,53.1,1.0,99,93,10,30.59,30.33,3,0,7,0.13
2013-5-1,77.4,61.3,47.1,49.5,41.9,29.6,87,55,21,30.74,30.59,4,1,14,0.00
2013-5-2,73.9,51.7,44.4,50.6,45.7,43.3,99,83,39,30.75,30.62,5,1,8,0.00
2013-5-3,73.4,63.9,48.2,50.6,44.0,36.3,96,52,31,30.69,30.60,4,2,14,0.00
2013-5-4,71.8,58.9,48.4,47.2,43.4,40.0,89,60,33,30.66,30.49,5,1,10,0.00
2013-5-5,69.3,60.0,46.4,48.0,42.6,39.6,86,54,37,30.56,30.43,3,2,11,0.00
2013-5-6,62.6,55.8,50.4,59.1,53.6,46.0,99,92,83,30.49,30.35,4,1,11,0.00
2013-5-7,63.5,59.8,57.4,62.7,59.4,57.1,99,99,97,30.38,30.23,3,1,14,0.46
2013-5-8,77.2,61.8,56.5,61.4,57.0,51.6,99,87,44,30.32,30.22,6,1,19,0.02
2013-5-9,78.1,59.5,54.1,66.2,56.5,53.3,99,91,49,30.32,30.23,6,1,8,0.18
2013-5-10,89.4,72.8,59.9,65.0,60.6,56.7,99,69,34,30.33,30.18,7,2,14,0.20
2013-5-11,81.0,67.0,63.1,69.7,64.0,61.2,99,91,56,30.24,30.00,7,2,12,0.39
2013-5-12,63.3,59.2,56.7,62.5,51.7,47.7,97,76,69,30.11,30.07,4,2,8,0.00
2013-5-13,63.0,53.7,45.5,34.3,25.5,15.7,61,36,17,30.48,30.35,8,3,17,0.12
2013-5-14,68.5,58.6,40.8,40.7,30.0,24.5,70,35,22,30.53,30.36,5,2,13,0.00
2013-5-15,62.4,58.1,55.0,50.0,47.1,41.3,75,67,55,30.36,30.22,3,1,8,0.00
2013-5-16,86.0,78.8,70.5,63.8,59.4,53.7,68,52,41,30.25,30.07,8,3,18,0.06
2013-5-17,89.1,75.2,62.1,61.3,54.3,42.3,85,52,26,30.46,30.24,4,1,11,0.00
2013-5-18,69.3,63.1,59.2,61.2,57.6,49.9,99,83,51,30.56,30.46,3,1,9,0.09
2013-5-19,81.1,66.5,59.2,68.1,63.7,58.9,99,91,61,30.52,30.40,2,0,7,0.02
2013-5-20,89.4,73.7,65.8,70.8,67.8,65.6,99,84,51,30.44,30.27,5,2,11,0.00
2013-5-21,89.6,73.8,67.8,71.8,68.7,67.5,99,86,53,30.32,30.19,4,2,10,0.00
2013-5-22,93.7,82.9,68.5,74.0,70.5,65.2,99,68,47,30.25,30.13,5,3,17,0.02
2013-5-23,86.2,73.3,63.1,70.1,67.8,62.3,99,84,53,30.24,30.07,6,3,17,1.05
2013-5-24,63.5,57.0,48.0,62.7,48.2,34.6,99,74,53,30.48,30.06,11,4,22,0.12
2013-5-25,69.3,56.7,43.9,38.0,34.0,29.0,68,45,23,30.50,30.36,8,5,22,0.05
2013-5-26,76.8,60.7,50.7,37.9,35.2,28.3,58,41,18,30.56,30.40,8,3,21,0.00
2013-5-27,77.5,64.9,50.7,50.0,42.5,35.3,77,46,24,30.60,30.50,4,1,10,0.00
2013-5-28,90.7,69.7,59.4,71.2,60.6,46.2,99,75,44,30.53,30.37,4,1,12,0.28
2013-5-29,93.4,79.3,66.7,70.2,66.9,57.0,99,70,41,30.44,30.38,4,2,12,0.00
2013-5-30,96.6,83.2,69.8,70.0,67.1,64.7,85,60,37,30.50,30.41,4,2,11,0.00
2013-5-31,95.0,82.2,68.9,68.6,65.8,62.6,89,60,37,30.48,30.32,6,3,15,0.00
2013-6-1,96.3,82.9,70.3,70.6,67.4,65.3,86,61,42,30.38,30.22,6,3,15,0.00
2013-6-2,87.3,77.4,68.0,72.2,68.5,15.2,99,75,57,30.25,30.16,6,4,15,0.73
2013-6-3,86.2,73.6,65.7,71.8,66.8,58.1,99,81,52,30.27,30.13,6,2,16,0.39
2013-6-4,80.1,69.1,59.2,58.4,48.7,39.4,79,52,27,30.45,30.27,5,2,12,0.00
2013-6-5,86.4,70.4,58.3,58.2,53.0,48.3,82,56,32,30.50,30.38,5,1,12,0.00
2013-6-6,75.2,69.0,54.1,66.2,63.3,53.3,99,83,61,30.37,30.18,4,2,13,4.06
2013-6-7,70.9,68.1,65.3,70.3,67.8,65.0,99,99,98,30.18,29.90,5,1,14,1.78
2013-6-8,86.4,72.8,65.8,66.7,63.0,60.3,99,74,44,30.42,30.01,5,2,13,0.01
2013-6-9,88.2,75.1,64.9,71.9,66.0,59.8,89,74,53,30.51,30.40,3,1,9,0.00
2013-6-10,83.3,72.7,68.2,77.6,71.4,67.9,99,96,78,30.43,30.12,5,1,13,1.65
2013-6-11,85.1,75.1,66.4,70.2,65.9,63.0,99,75,50,30.19,30.10,6,3,18,0.01
2013-6-12,92.7,80.8,68.4,71.4,66.3,63.0,87,63,41,30.19,30.09,6,2,15,0.00
2013-6-13,90.0,76.4,70.5,76.1,69.6,60.1,99,81,48,30.14,29.79,9,3,25,0.52
2013-6-14,83.3,72.7,60.4,59.9,54.5,48.6,91,55,35,30.30,29.93,8,3,23,0.01
2013-6-15,86.9,75.1,63.7,60.1,56.5,52.1,80,55,34,30.40,30.29,5,2,12,0.00
2013-6-16,85.8,77.8,67.3,69.4,64.2,56.0,83,64,49,30.35,30.20,7,2,19,0.00
2013-6-17,90.5,80.1,71.2,73.8,68.5,63.4,89,69,47,30.28,30.19,3,1,11,0.00
2013-6-18,77.0,71.6,64.9,72.5,69.4,64.7,99,93,84,30.24,30.12,3,1,8,0.28
2013-6-19,83.5,70.8,63.9,66.9,63.8,59.9,99,80,48,30.49,30.21,3,1,8,0.00
2013-6-20,87.1,73.1,63.7,66.1,61.0,54.3,99,69,39,30.60,30.49,4,1,14,0.00
2013-6-21,90.0,75.6,59.7,66.1,55.6,46.9,88,54,24,30.64,30.53,3,1,9,0.00
2013-6-22,93.4,77.9,64.2,68.8,65.8,62.7,99,70,41,30.59,30.42,4,2,15,0.00
2013-6-23,91.2,77.3,69.8,75.3,71.2,68.0,99,83,53,30.52,30.37,3,1,9,0.83
2013-6-24,95.4,80.0,71.2,75.3,71.7,67.0,99,78,41,30.45,30.32,6,2,17,0.01
2013-6-25,96.6,82.8,69.6,73.9,70.5,62.5,99,70,42,30.38,30.18,10,2,20,0.00
2013-6-26,95.2,79.9,69.8,77.6,70.3,65.5,98,75,46,30.26,30.14,4,2,11,0.02
2013-6-27,87.8,75.5,69.1,75.0,71.9,68.8,99,89,64,30.17,29.93,5,2,15,0.01
2013-6-28,92.1,75.7,68.0,73.9,70.4,15.2,98,86,12,29.97,29.82,10,2,28,0.79
2013-6-29,94.1,79.4,67.1,73.9,67.0,61.0,99,70,39,30.03,29.86,4,1,11,0.00
2013-6-30,92.8,79.5,73.2,77.5,74.9,71.0,99,87,52,30.19,30.03,3,1,11,0.00
2013-7-1,89.6,79.5,73.4,77.1,74.2,70.7,99,85,57,30.32,30.19,4,2,14,0.13
2013-7-2,84.6,76.4,72.9,75.9,74.1,72.0,99,93,71,30.51,30.31,4,2,17,0.08
2013-7-3,89.1,76.8,71.6,78.6,73.9,70.7,99,91,66,30.56,30.49,4,2,11,0.50
2013-7-4,94.1,81.2,73.9,76.1,73.9,70.3,99,81,48,30.59,30.49,5,3,15,0.00